sensor_id;sensor_type;location;lat;lon;timestamp;temperature;humidity
43151;DHT22;28755;51.478;5.702;2022-09-09T00:04:32;15.20;99.90
43151;DHT22;28755;51.478;5.702;2022-09-09T00:07:19;15.10;99.90
43151;DHT22;28755;51.478;5.702;2022-09-09T00:10:08;15.10;99.90
43151;DHT22;28755;51.478;5.702;2022-09-09T00:18:30;15.10;99.90
43151;DHT22;28755;51.478;5.702;2022-09-09T00:21:17;15.00;99.90
43151;DHT22;28755;51.478;5.702;2022-09-09T00:23:50;15.00;99.90
43151;DHT22;28755;51.478;5.702;2022-09-09T00:31:34;14.90;99.90
43151;DHT22;28755;51.478;5.702;2022-09-09T00:34:22;15.00;99.90
43151;DHT22;28755;51.478;5.702;2022-09-09T00:36:50;14.90;99.90
43151;DHT22;28755;51.478;5.702;2022-09-09T00:39:36;14.90;99.90
43151;DHT22;28755;51.478;5.702;2022-09-09T00:42:08;14.90;99.90
43151;DHT22;28755;51.478;5.702;2022-09-09T00:47:41;14.90;99.90
43151;DHT22;28755;51.478;5.702;2022-09-09T00:50:27;14.90;99.90
43151;DHT22;28755;51.478;5.702;2022-09-09T00:53:15;14.90;99.90
43151;DHT22;28755;51.478;5.702;2022-09-09T00:58:37;15.00;99.90
43151;DHT22;28755;51.478;5.702;2022-09-09T01:01:11;15.00;99.90
43151;DHT22;28755;51.478;5.702;2022-09-09T01:03:38;15.00;99.90
43151;DHT22;28755;51.478;5.702;2022-09-09T01:06:16;15.10;99.90
43151;DHT22;28755;51.478;5.702;2022-09-09T01:14:28;14.90;99.90
43151;DHT22;28755;51.478;5.702;2022-09-09T01:16:59;14.90;99.90
43151;DHT22;28755;51.478;5.702;2022-09-09T01:19:50;14.90;99.90
43151;DHT22;28755;51.478;5.702;2022-09-09T01:23:18;14.90;99.90
43151;DHT22;28755;51.478;5.702;2022-09-09T01:27:46;14.80;99.90
43151;DHT22;28755;51.478;5.702;2022-09-09T01:30:16;14.80;99.90
43151;DHT22;28755;51.478;5.702;2022-09-09T01:32:49;14.70;99.90
43151;DHT22;28755;51.478;5.702;2022-09-09T01:37:58;14.70;99.90
43151;DHT22;28755;51.478;5.702;2022-09-09T01:40:24;14.70;99.90
43151;DHT22;28755;51.478;5.702;2022-09-09T01:42:51;14.70;99.90
43151;DHT22;28755;51.478;5.702;2022-09-09T01:45:17;14.70;99.90
43151;DHT22;28755;51.478;5.702;2022-09-09T01:47:43;14.60;99.90
43151;DHT22;28755;51.478;5.702;2022-09-09T01:50:10;14.70;99.90
43151;DHT22;28755;51.478;5.702;2022-09-09T01:52:37;14.60;99.90
43151;DHT22;28755;51.478;5.702;2022-09-09T01:55:04;14.60;99.90
43151;DHT22;28755;51.478;5.702;2022-09-09T01:57:35;14.60;99.90
43151;DHT22;28755;51.478;5.702;2022-09-09T02:00:13;14.60;99.90
43151;DHT22;28755;51.478;5.702;2022-09-09T02:02:43;14.60;99.90
43151;DHT22;28755;51.478;5.702;2022-09-09T02:07:48;14.60;99.90
43151;DHT22;28755;51.478;5.702;2022-09-09T02:10:28;14.60;99.90
43151;DHT22;28755;51.478;5.702;2022-09-09T02:13:06;14.60;99.90
43151;DHT22;28755;51.478;5.702;2022-09-09T02:15:39;14.60;99.90
43151;DHT22;28755;51.478;5.702;2022-09-09T02:18:08;14.60;99.90
43151;DHT22;28755;51.478;5.702;2022-09-09T02:20:38;14.60;99.90
43151;DHT22;28755;51.478;5.702;2022-09-09T02:23:04;14.60;99.90
43151;DHT22;28755;51.478;5.702;2022-09-09T02:25:30;14.60;99.90
43151;DHT22;28755;51.478;5.702;2022-09-09T02:27:57;14.60;99.90
43151;DHT22;28755;51.478;5.702;2022-09-09T02:30:24;14.60;99.90
43151;DHT22;28755;51.478;5.702;2022-09-09T02:32:52;14.50;99.90
43151;DHT22;28755;51.478;5.702;2022-09-09T02:35:23;14.60;99.90
43151;DHT22;28755;51.478;5.702;2022-09-09T02:37:54;14.60;99.90
43151;DHT22;28755;51.478;5.702;2022-09-09T02:40:21;14.50;99.90
43151;DHT22;28755;51.478;5.702;2022-09-09T02:42:48;14.60;99.90
43151;DHT22;28755;51.478;5.702;2022-09-09T02:45:18;14.50;99.90
43151;DHT22;28755;51.478;5.702;2022-09-09T02:48:08;14.50;99.90
43151;DHT22;28755;51.478;5.702;2022-09-09T02:50:35;14.40;99.90
43151;DHT22;28755;51.478;5.702;2022-09-09T02:53:17;14.50;99.90
43151;DHT22;28755;51.478;5.702;2022-09-09T02:55:54;14.50;99.90
43151;DHT22;28755;51.478;5.702;2022-09-09T02:58:22;14.50;99.90
43151;DHT22;28755;51.478;5.702;2022-09-09T03:00:49;14.60;99.90
43151;DHT22;28755;51.478;5.702;2022-09-09T03:03:15;14.50;99.90
43151;DHT22;28755;51.478;5.702;2022-09-09T03:05:42;14.50;99.90
43151;DHT22;28755;51.478;5.702;2022-09-09T03:08:08;14.60;99.90
43151;DHT22;28755;51.478;5.702;2022-09-09T03:10:34;14.60;99.90
43151;DHT22;28755;51.478;5.702;2022-09-09T03:13:00;14.50;99.90
43151;DHT22;28755;51.478;5.702;2022-09-09T03:15:26;14.60;99.90
43151;DHT22;28755;51.478;5.702;2022-09-09T03:17:55;14.70;99.90
43151;DHT22;28755;51.478;5.702;2022-09-09T03:20:25;14.60;99.90
43151;DHT22;28755;51.478;5.702;2022-09-09T03:22:55;14.70;99.90
43151;DHT22;28755;51.478;5.702;2022-09-09T03:25:21;14.70;99.90
43151;DHT22;28755;51.478;5.702;2022-09-09T03:27:51;14.80;99.90
43151;DHT22;28755;51.478;5.702;2022-09-09T03:30:23;14.80;99.90
43151;DHT22;28755;51.478;5.702;2022-09-09T03:32:49;14.80;99.90
43151;DHT22;28755;51.478;5.702;2022-09-09T03:35:15;14.80;99.90
43151;DHT22;28755;51.478;5.702;2022-09-09T03:37:41;14.90;99.90
43151;DHT22;28755;51.478;5.702;2022-09-09T03:40:07;14.90;99.90
43151;DHT22;28755;51.478;5.702;2022-09-09T03:42:35;14.90;99.90
43151;DHT22;28755;51.478;5.702;2022-09-09T03:45:06;15.00;99.90
43151;DHT22;28755;51.478;5.702;2022-09-09T03:47:32;15.00;99.90
43151;DHT22;28755;51.478;5.702;2022-09-09T03:49:58;15.00;99.90
43151;DHT22;28755;51.478;5.702;2022-09-09T03:52:24;15.00;99.90
43151;DHT22;28755;51.478;5.702;2022-09-09T03:54:51;15.00;99.90
43151;DHT22;28755;51.478;5.702;2022-09-09T03:57:18;15.10;99.90
43151;DHT22;28755;51.478;5.702;2022-09-09T03:59:44;15.10;99.90
43151;DHT22;28755;51.478;5.702;2022-09-09T04:02:09;15.20;99.90
43151;DHT22;28755;51.478;5.702;2022-09-09T04:04:35;15.10;99.90
43151;DHT22;28755;51.478;5.702;2022-09-09T04:07:01;15.10;99.90
43151;DHT22;28755;51.478;5.702;2022-09-09T04:09:26;15.20;99.90
43151;DHT22;28755;51.478;5.702;2022-09-09T04:11:52;15.20;99.90
43151;DHT22;28755;51.478;5.702;2022-09-09T04:14:18;15.20;99.90
43151;DHT22;28755;51.478;5.702;2022-09-09T04:16:44;15.20;99.90
43151;DHT22;28755;51.478;5.702;2022-09-09T04:19:11;15.20;99.90
43151;DHT22;28755;51.478;5.702;2022-09-09T04:21:42;15.20;99.90
43151;DHT22;28755;51.478;5.702;2022-09-09T04:24:08;15.30;99.90
43151;DHT22;28755;51.478;5.702;2022-09-09T04:26:35;15.20;99.90
43151;DHT22;28755;51.478;5.702;2022-09-09T04:29:02;15.30;99.90
43151;DHT22;28755;51.478;5.702;2022-09-09T04:31:27;15.40;99.90
43151;DHT22;28755;51.478;5.702;2022-09-09T04:33:53;15.30;99.90
43151;DHT22;28755;51.478;5.702;2022-09-09T04:36:19;15.30;99.90
43151;DHT22;28755;51.478;5.702;2022-09-09T04:38:46;15.30;99.90
43151;DHT22;28755;51.478;5.702;2022-09-09T04:41:12;15.30;99.90
43151;DHT22;28755;51.478;5.702;2022-09-09T04:43:38;15.30;99.90
43151;DHT22;28755;51.478;5.702;2022-09-09T04:46:04;15.40;99.90
43151;DHT22;28755;51.478;5.702;2022-09-09T04:48:31;15.40;99.90
43151;DHT22;28755;51.478;5.702;2022-09-09T04:50:57;15.40;99.90
43151;DHT22;28755;51.478;5.702;2022-09-09T04:53:23;15.40;99.90
43151;DHT22;28755;51.478;5.702;2022-09-09T04:55:48;15.40;99.90
43151;DHT22;28755;51.478;5.702;2022-09-09T04:58:14;15.40;99.90
43151;DHT22;28755;51.478;5.702;2022-09-09T05:00:40;15.40;99.90
43151;DHT22;28755;51.478;5.702;2022-09-09T05:03:06;15.30;99.90
43151;DHT22;28755;51.478;5.702;2022-09-09T05:05:34;15.30;99.90
43151;DHT22;28755;51.478;5.702;2022-09-09T05:08:07;15.30;99.90
43151;DHT22;28755;51.478;5.702;2022-09-09T05:10:36;15.30;99.90
43151;DHT22;28755;51.478;5.702;2022-09-09T05:13:02;15.30;99.90
43151;DHT22;28755;51.478;5.702;2022-09-09T05:15:29;15.30;99.90
43151;DHT22;28755;51.478;5.702;2022-09-09T05:18:01;15.30;99.90
43151;DHT22;28755;51.478;5.702;2022-09-09T05:20:30;15.30;99.90
43151;DHT22;28755;51.478;5.702;2022-09-09T05:22:57;15.30;99.90
43151;DHT22;28755;51.478;5.702;2022-09-09T05:25:23;15.30;99.90
43151;DHT22;28755;51.478;5.702;2022-09-09T05:27:51;15.30;99.90
43151;DHT22;28755;51.478;5.702;2022-09-09T05:30:18;15.40;99.90
43151;DHT22;28755;51.478;5.702;2022-09-09T05:32:44;15.40;99.90
43151;DHT22;28755;51.478;5.702;2022-09-09T05:35:10;15.30;99.90
43151;DHT22;28755;51.478;5.702;2022-09-09T05:37:35;15.30;99.90
43151;DHT22;28755;51.478;5.702;2022-09-09T05:40:01;15.30;99.90
43151;DHT22;28755;51.478;5.702;2022-09-09T05:42:30;15.30;99.90
43151;DHT22;28755;51.478;5.702;2022-09-09T05:44:56;15.40;99.90
43151;DHT22;28755;51.478;5.702;2022-09-09T05:47:23;15.30;99.90
43151;DHT22;28755;51.478;5.702;2022-09-09T05:49:49;15.40;99.90
43151;DHT22;28755;51.478;5.702;2022-09-09T05:52:14;15.40;99.90
43151;DHT22;28755;51.478;5.702;2022-09-09T05:54:40;15.50;99.90
43151;DHT22;28755;51.478;5.702;2022-09-09T05:57:06;15.50;99.90
43151;DHT22;28755;51.478;5.702;2022-09-09T05:59:32;15.50;99.90
43151;DHT22;28755;51.478;5.702;2022-09-09T06:01:58;15.60;99.90
43151;DHT22;28755;51.478;5.702;2022-09-09T06:04:23;15.60;99.90
43151;DHT22;28755;51.478;5.702;2022-09-09T06:06:50;15.70;99.90
43151;DHT22;28755;51.478;5.702;2022-09-09T06:09:16;15.80;99.90
43151;DHT22;28755;51.478;5.702;2022-09-09T06:11:41;15.70;99.90
43151;DHT22;28755;51.478;5.702;2022-09-09T06:14:08;15.90;99.90
43151;DHT22;28755;51.478;5.702;2022-09-09T06:16:34;15.80;99.90
43151;DHT22;28755;51.478;5.702;2022-09-09T06:19:00;15.90;99.90
43151;DHT22;28755;51.478;5.702;2022-09-09T06:21:30;16.00;99.90
43151;DHT22;28755;51.478;5.702;2022-09-09T06:23:56;16.00;99.90
43151;DHT22;28755;51.478;5.702;2022-09-09T06:26:26;16.10;99.90
43151;DHT22;28755;51.478;5.702;2022-09-09T06:28:53;16.20;99.90
43151;DHT22;28755;51.478;5.702;2022-09-09T06:31:21;16.20;99.90
43151;DHT22;28755;51.478;5.702;2022-09-09T06:33:51;16.20;99.90
43151;DHT22;28755;51.478;5.702;2022-09-09T06:36:22;16.30;99.90
43151;DHT22;28755;51.478;5.702;2022-09-09T06:38:48;16.30;99.90
43151;DHT22;28755;51.478;5.702;2022-09-09T06:41:15;16.40;99.90
43151;DHT22;28755;51.478;5.702;2022-09-09T06:43:42;16.30;99.90
43151;DHT22;28755;51.478;5.702;2022-09-09T06:46:14;16.30;99.90
43151;DHT22;28755;51.478;5.702;2022-09-09T06:48:40;16.20;99.90
43151;DHT22;28755;51.478;5.702;2022-09-09T06:51:12;16.40;99.90
43151;DHT22;28755;51.478;5.702;2022-09-09T06:53:39;16.40;99.90
43151;DHT22;28755;51.478;5.702;2022-09-09T06:56:19;16.60;99.90
43151;DHT22;28755;51.478;5.702;2022-09-09T06:58:46;16.80;99.90
43151;DHT22;28755;51.478;5.702;2022-09-09T07:01:14;16.80;99.90
43151;DHT22;28755;51.478;5.702;2022-09-09T07:03:41;16.70;99.90
43151;DHT22;28755;51.478;5.702;2022-09-09T07:06:11;16.70;99.90
43151;DHT22;28755;51.478;5.702;2022-09-09T07:08:39;16.60;99.90
43151;DHT22;28755;51.478;5.702;2022-09-09T07:11:07;16.60;99.90
43151;DHT22;28755;51.478;5.702;2022-09-09T07:13:33;16.90;99.90
43151;DHT22;28755;51.478;5.702;2022-09-09T07:16:10;17.30;99.90
43151;DHT22;28755;51.478;5.702;2022-09-09T07:18:36;17.40;99.90
43151;DHT22;28755;51.478;5.702;2022-09-09T07:21:03;17.80;99.90
43151;DHT22;28755;51.478;5.702;2022-09-09T07:23:29;18.20;99.90
43151;DHT22;28755;51.478;5.702;2022-09-09T07:25:55;18.30;99.90
43151;DHT22;28755;51.478;5.702;2022-09-09T07:28:21;18.30;99.90
43151;DHT22;28755;51.478;5.702;2022-09-09T07:33:20;19.00;99.90
43151;DHT22;28755;51.478;5.702;2022-09-09T07:35:46;19.80;99.90
43151;DHT22;28755;51.478;5.702;2022-09-09T07:38:11;20.00;99.90
43151;DHT22;28755;51.478;5.702;2022-09-09T07:40:37;19.90;99.90
43151;DHT22;28755;51.478;5.702;2022-09-09T07:43:03;18.80;99.90
43151;DHT22;28755;51.478;5.702;2022-09-09T07:45:29;18.50;99.90
43151;DHT22;28755;51.478;5.702;2022-09-09T07:47:57;18.50;99.90
43151;DHT22;28755;51.478;5.702;2022-09-09T07:50:24;18.20;99.90
43151;DHT22;28755;51.478;5.702;2022-09-09T07:52:51;18.30;99.90
43151;DHT22;28755;51.478;5.702;2022-09-09T07:55:17;18.10;99.90
43151;DHT22;28755;51.478;5.702;2022-09-09T07:57:42;17.90;99.90
43151;DHT22;28755;51.478;5.702;2022-09-09T08:00:08;17.80;99.90
43151;DHT22;28755;51.478;5.702;2022-09-09T08:02:35;17.80;99.90
43151;DHT22;28755;51.478;5.702;2022-09-09T08:05:01;17.80;99.90
43151;DHT22;28755;51.478;5.702;2022-09-09T08:07:26;17.90;99.90
43151;DHT22;28755;51.478;5.702;2022-09-09T08:09:52;17.90;99.90
43151;DHT22;28755;51.478;5.702;2022-09-09T08:12:19;18.00;99.90
43151;DHT22;28755;51.478;5.702;2022-09-09T08:14:45;18.10;99.90
43151;DHT22;28755;51.478;5.702;2022-09-09T08:17:10;18.40;99.90
43151;DHT22;28755;51.478;5.702;2022-09-09T08:19:36;18.50;99.90
43151;DHT22;28755;51.478;5.702;2022-09-09T08:22:02;18.20;99.90
43151;DHT22;28755;51.478;5.702;2022-09-09T08:24:28;18.20;99.90
43151;DHT22;28755;51.478;5.702;2022-09-09T08:26:54;18.30;99.90
43151;DHT22;28755;51.478;5.702;2022-09-09T08:29:22;18.10;99.90
43151;DHT22;28755;51.478;5.702;2022-09-09T08:31:53;18.10;99.90
43151;DHT22;28755;51.478;5.702;2022-09-09T08:34:20;18.10;99.90
43151;DHT22;28755;51.478;5.702;2022-09-09T08:36:47;18.10;99.90
43151;DHT22;28755;51.478;5.702;2022-09-09T08:39:15;18.00;99.90
43151;DHT22;28755;51.478;5.702;2022-09-09T08:42:12;17.80;99.90
43151;DHT22;28755;51.478;5.702;2022-09-09T08:47:54;18.10;99.90
43151;DHT22;28755;51.478;5.702;2022-09-09T08:50:30;18.40;99.90
43151;DHT22;28755;51.478;5.702;2022-09-09T08:53:23;18.50;99.90
43151;DHT22;28755;51.478;5.702;2022-09-09T08:55:58;18.50;99.90
43151;DHT22;28755;51.478;5.702;2022-09-09T09:09:18;18.70;99.90
43151;DHT22;28755;51.478;5.702;2022-09-09T09:11:53;18.40;99.90
43151;DHT22;28755;51.478;5.702;2022-09-09T09:14:24;18.40;99.90
43151;DHT22;28755;51.478;5.702;2022-09-09T09:19:29;18.30;99.90
43151;DHT22;28755;51.478;5.702;2022-09-09T09:24:55;18.10;99.90
43151;DHT22;28755;51.478;5.702;2022-09-09T09:29:50;18.10;99.90
43151;DHT22;28755;51.478;5.702;2022-09-09T09:32:18;18.20;99.90
43151;DHT22;28755;51.478;5.702;2022-09-09T09:35:12;18.10;99.90
43151;DHT22;28755;51.478;5.702;2022-09-09T09:37:40;18.20;99.90
43151;DHT22;28755;51.478;5.702;2022-09-09T09:40:18;18.30;99.90
43151;DHT22;28755;51.478;5.702;2022-09-09T09:42:58;18.40;99.90
43151;DHT22;28755;51.478;5.702;2022-09-09T09:48:02;18.40;99.90
43151;DHT22;28755;51.478;5.702;2022-09-09T09:50:28;18.40;99.90
43151;DHT22;28755;51.478;5.702;2022-09-09T09:53:04;18.30;99.90
43151;DHT22;28755;51.478;5.702;2022-09-09T09:55:33;18.30;99.90
43151;DHT22;28755;51.478;5.702;2022-09-09T09:58:05;18.30;99.90
43151;DHT22;28755;51.478;5.702;2022-09-09T10:00:32;18.20;99.90
43151;DHT22;28755;51.478;5.702;2022-09-09T10:03:00;18.10;99.90
43151;DHT22;28755;51.478;5.702;2022-09-09T10:05:28;18.10;99.90
43151;DHT22;28755;51.478;5.702;2022-09-09T10:08:14;18.30;99.90
43151;DHT22;28755;51.478;5.702;2022-09-09T10:19:33;18.90;99.90
43151;DHT22;28755;51.478;5.702;2022-09-09T10:27:23;18.60;99.90
43151;DHT22;28755;51.478;5.702;2022-09-09T10:30:13;18.50;99.90
43151;DHT22;28755;51.478;5.702;2022-09-09T10:36:13;18.40;99.90
43151;DHT22;28755;51.478;5.702;2022-09-09T10:38:45;18.30;99.90
43151;DHT22;28755;51.478;5.702;2022-09-09T10:46:52;18.30;99.90
43151;DHT22;28755;51.478;5.702;2022-09-09T10:49:22;18.00;99.90
43151;DHT22;28755;51.478;5.702;2022-09-09T10:52:10;17.80;99.90
43151;DHT22;28755;51.478;5.702;2022-09-09T10:57:33;17.50;99.90
43151;DHT22;28755;51.478;5.702;2022-09-09T11:00:06;17.40;99.90
43151;DHT22;28755;51.478;5.702;2022-09-09T11:02:33;17.30;99.90
43151;DHT22;28755;51.478;5.702;2022-09-09T11:05:18;17.20;99.90
43151;DHT22;28755;51.478;5.702;2022-09-09T11:10:25;17.10;99.90
43151;DHT22;28755;51.478;5.702;2022-09-09T11:12:59;17.00;99.90
43151;DHT22;28755;51.478;5.702;2022-09-09T11:15:38;17.00;99.90
43151;DHT22;28755;51.478;5.702;2022-09-09T11:18:08;16.80;99.90
43151;DHT22;28755;51.478;5.702;2022-09-09T11:20:36;16.70;99.90
43151;DHT22;28755;51.478;5.702;2022-09-09T11:23:13;16.60;99.90
43151;DHT22;28755;51.478;5.702;2022-09-09T11:25:50;16.60;99.90
43151;DHT22;28755;51.478;5.702;2022-09-09T11:34:21;16.50;99.90
43151;DHT22;28755;51.478;5.702;2022-09-09T11:39:55;18.80;99.90
43151;DHT22;28755;51.478;5.702;2022-09-09T11:42:24;19.10;99.90
43151;DHT22;28755;51.478;5.702;2022-09-09T11:44:50;19.70;99.90
43151;DHT22;28755;51.478;5.702;2022-09-09T11:47:25;20.00;99.90
43151;DHT22;28755;51.478;5.702;2022-09-09T11:50:09;19.70;99.90
43151;DHT22;28755;51.478;5.702;2022-09-09T11:53:04;18.80;99.90
43151;DHT22;28755;51.478;5.702;2022-09-09T11:55:34;18.70;99.90
43151;DHT22;28755;51.478;5.702;2022-09-09T12:00:40;18.30;99.90
43151;DHT22;28755;51.478;5.702;2022-09-09T12:06:26;18.30;99.90
43151;DHT22;28755;51.478;5.702;2022-09-09T12:08:57;18.00;99.90
43151;DHT22;28755;51.478;5.702;2022-09-09T12:11:28;18.00;99.90
43151;DHT22;28755;51.478;5.702;2022-09-09T12:13:56;18.00;99.90
43151;DHT22;28755;51.478;5.702;2022-09-09T12:16:36;18.10;99.90
43151;DHT22;28755;51.478;5.702;2022-09-09T12:19:19;17.80;99.90
43151;DHT22;28755;51.478;5.702;2022-09-09T12:22:06;17.80;99.90
43151;DHT22;28755;51.478;5.702;2022-09-09T12:24:56;17.90;99.90
43151;DHT22;28755;51.478;5.702;2022-09-09T12:27:33;17.90;99.90
43151;DHT22;28755;51.478;5.702;2022-09-09T12:30:14;18.00;99.90
43151;DHT22;28755;51.478;5.702;2022-09-09T12:32:40;18.30;99.90
43151;DHT22;28755;51.478;5.702;2022-09-09T12:35:13;18.40;99.90
43151;DHT22;28755;51.478;5.702;2022-09-09T12:37:52;18.50;99.90
43151;DHT22;28755;51.478;5.702;2022-09-09T12:40:21;18.80;99.90
43151;DHT22;28755;51.478;5.702;2022-09-09T12:42:47;19.10;99.90
43151;DHT22;28755;51.478;5.702;2022-09-09T12:45:30;19.40;99.90
43151;DHT22;28755;51.478;5.702;2022-09-09T12:48:10;19.50;99.90
43151;DHT22;28755;51.478;5.702;2022-09-09T12:50:49;19.50;99.90
43151;DHT22;28755;51.478;5.702;2022-09-09T12:53:30;19.70;99.90
43151;DHT22;28755;51.478;5.702;2022-09-09T12:56:03;19.70;99.90
43151;DHT22;28755;51.478;5.702;2022-09-09T12:58:30;19.90;99.90
43151;DHT22;28755;51.478;5.702;2022-09-09T13:01:01;19.50;99.90
43151;DHT22;28755;51.478;5.702;2022-09-09T13:03:31;19.30;99.90
43151;DHT22;28755;51.478;5.702;2022-09-09T13:06:13;19.30;99.90
43151;DHT22;28755;51.478;5.702;2022-09-09T13:08:39;19.20;99.90
43151;DHT22;28755;51.478;5.702;2022-09-09T13:11:20;19.00;99.90
43151;DHT22;28755;51.478;5.702;2022-09-09T13:13:53;19.00;99.90
43151;DHT22;28755;51.478;5.702;2022-09-09T13:16:22;19.10;99.90
43151;DHT22;28755;51.478;5.702;2022-09-09T13:18:48;19.10;99.90
43151;DHT22;28755;51.478;5.702;2022-09-09T13:21:15;19.10;99.90
43151;DHT22;28755;51.478;5.702;2022-09-09T13:23:40;19.10;99.90
43151;DHT22;28755;51.478;5.702;2022-09-09T13:26:23;19.00;99.90
43151;DHT22;28755;51.478;5.702;2022-09-09T13:28:50;18.90;99.90
43151;DHT22;28755;51.478;5.702;2022-09-09T13:31:36;19.20;99.90
43151;DHT22;28755;51.478;5.702;2022-09-09T13:34:30;19.30;99.90
43151;DHT22;28755;51.478;5.702;2022-09-09T13:37:01;19.70;99.90
43151;DHT22;28755;51.478;5.702;2022-09-09T13:39:28;19.90;99.90
43151;DHT22;28755;51.478;5.702;2022-09-09T13:41:54;20.10;99.90
43151;DHT22;28755;51.478;5.702;2022-09-09T13:44:24;20.40;99.90
43151;DHT22;28755;51.478;5.702;2022-09-09T13:47:04;20.50;99.90
43151;DHT22;28755;51.478;5.702;2022-09-09T13:49:30;20.50;99.90
43151;DHT22;28755;51.478;5.702;2022-09-09T13:52:13;20.30;99.90
43151;DHT22;28755;51.478;5.702;2022-09-09T13:54:40;19.80;99.90
43151;DHT22;28755;51.478;5.702;2022-09-09T13:57:23;19.60;99.90
43151;DHT22;28755;51.478;5.702;2022-09-09T13:59:51;19.50;99.90
43151;DHT22;28755;51.478;5.702;2022-09-09T14:02:17;19.60;99.90
43151;DHT22;28755;51.478;5.702;2022-09-09T14:04:43;19.90;99.90
43151;DHT22;28755;51.478;5.702;2022-09-09T14:07:14;20.10;99.90
43151;DHT22;28755;51.478;5.702;2022-09-09T14:09:40;20.10;99.90
43151;DHT22;28755;51.478;5.702;2022-09-09T14:12:12;20.10;99.90
43151;DHT22;28755;51.478;5.702;2022-09-09T14:14:40;20.10;99.90
43151;DHT22;28755;51.478;5.702;2022-09-09T14:17:07;20.30;99.90
43151;DHT22;28755;51.478;5.702;2022-09-09T14:19:33;20.60;99.90
43151;DHT22;28755;51.478;5.702;2022-09-09T14:21:59;20.90;99.90
43151;DHT22;28755;51.478;5.702;2022-09-09T14:24:25;21.00;99.90
43151;DHT22;28755;51.478;5.702;2022-09-09T14:26:50;21.20;99.90
43151;DHT22;28755;51.478;5.702;2022-09-09T14:29:16;21.00;99.90
43151;DHT22;28755;51.478;5.702;2022-09-09T14:31:42;20.70;99.90
43151;DHT22;28755;51.478;5.702;2022-09-09T14:34:07;20.50;99.90
43151;DHT22;28755;51.478;5.702;2022-09-09T14:36:33;20.40;99.90
43151;DHT22;28755;51.478;5.702;2022-09-09T14:38:58;20.20;99.90
43151;DHT22;28755;51.478;5.702;2022-09-09T14:41:24;20.10;99.90
43151;DHT22;28755;51.478;5.702;2022-09-09T14:43:50;20.10;99.90
43151;DHT22;28755;51.478;5.702;2022-09-09T14:46:18;20.20;99.90
43151;DHT22;28755;51.478;5.702;2022-09-09T14:48:44;20.50;99.90
43151;DHT22;28755;51.478;5.702;2022-09-09T14:51:17;21.00;99.90
43151;DHT22;28755;51.478;5.702;2022-09-09T14:53:45;21.00;99.90
43151;DHT22;28755;51.478;5.702;2022-09-09T14:56:14;20.90;99.90
43151;DHT22;28755;51.478;5.702;2022-09-09T14:58:40;20.80;99.90
43151;DHT22;28755;51.478;5.702;2022-09-09T15:01:11;20.80;99.90
43151;DHT22;28755;51.478;5.702;2022-09-09T15:03:38;20.80;99.90
43151;DHT22;28755;51.478;5.702;2022-09-09T15:06:09;21.00;99.90
43151;DHT22;28755;51.478;5.702;2022-09-09T15:08:41;21.20;99.90
43151;DHT22;28755;51.478;5.702;2022-09-09T15:11:07;21.10;99.90
43151;DHT22;28755;51.478;5.702;2022-09-09T15:13:34;20.80;99.90
43151;DHT22;28755;51.478;5.702;2022-09-09T15:16:06;20.80;99.90
43151;DHT22;28755;51.478;5.702;2022-09-09T15:18:33;20.60;99.90
43151;DHT22;28755;51.478;5.702;2022-09-09T15:20:59;20.50;99.90
43151;DHT22;28755;51.478;5.702;2022-09-09T15:23:26;20.50;99.90
43151;DHT22;28755;51.478;5.702;2022-09-09T15:25:53;20.50;99.90
43151;DHT22;28755;51.478;5.702;2022-09-09T15:28:20;20.70;99.90
43151;DHT22;28755;51.478;5.702;2022-09-09T15:30:50;20.60;99.90
43151;DHT22;28755;51.478;5.702;2022-09-09T15:33:17;20.40;99.90
43151;DHT22;28755;51.478;5.702;2022-09-09T15:35:42;20.30;99.90
43151;DHT22;28755;51.478;5.702;2022-09-09T15:38:08;20.30;99.90
43151;DHT22;28755;51.478;5.702;2022-09-09T15:40:33;20.30;99.90
43151;DHT22;28755;51.478;5.702;2022-09-09T15:42:59;20.30;99.90
43151;DHT22;28755;51.478;5.702;2022-09-09T15:45:24;20.20;99.90
43151;DHT22;28755;51.478;5.702;2022-09-09T15:47:50;20.00;99.90
43151;DHT22;28755;51.478;5.702;2022-09-09T15:50:17;20.10;99.90
43151;DHT22;28755;51.478;5.702;2022-09-09T15:52:42;20.50;99.90
43151;DHT22;28755;51.478;5.702;2022-09-09T15:55:08;20.60;99.90
43151;DHT22;28755;51.478;5.702;2022-09-09T15:57:35;20.70;99.90
43151;DHT22;28755;51.478;5.702;2022-09-09T16:00:03;20.40;99.90
43151;DHT22;28755;51.478;5.702;2022-09-09T16:02:29;20.10;99.90
43151;DHT22;28755;51.478;5.702;2022-09-09T16:04:56;20.00;99.90
43151;DHT22;28755;51.478;5.702;2022-09-09T16:07:22;19.90;99.90
43151;DHT22;28755;51.478;5.702;2022-09-09T16:09:48;19.80;99.90
43151;DHT22;28755;51.478;5.702;2022-09-09T16:12:16;19.80;99.90
43151;DHT22;28755;51.478;5.702;2022-09-09T16:14:42;19.70;99.90
43151;DHT22;28755;51.478;5.702;2022-09-09T16:17:08;19.70;99.90
43151;DHT22;28755;51.478;5.702;2022-09-09T16:19:34;19.80;99.90
43151;DHT22;28755;51.478;5.702;2022-09-09T16:22:01;19.90;99.90
43151;DHT22;28755;51.478;5.702;2022-09-09T16:24:27;19.70;99.90
43151;DHT22;28755;51.478;5.702;2022-09-09T16:26:54;19.80;99.90
43151;DHT22;28755;51.478;5.702;2022-09-09T16:29:20;19.70;99.90
43151;DHT22;28755;51.478;5.702;2022-09-09T16:31:48;19.50;99.90
43151;DHT22;28755;51.478;5.702;2022-09-09T16:34:17;19.30;99.90
43151;DHT22;28755;51.478;5.702;2022-09-09T16:36:44;19.10;99.90
43151;DHT22;28755;51.478;5.702;2022-09-09T16:39:12;18.90;99.90
43151;DHT22;28755;51.478;5.702;2022-09-09T16:41:39;18.80;99.90
43151;DHT22;28755;51.478;5.702;2022-09-09T16:44:07;18.70;99.90
43151;DHT22;28755;51.478;5.702;2022-09-09T16:46:36;18.60;99.90
43151;DHT22;28755;51.478;5.702;2022-09-09T16:49:03;18.60;99.90
43151;DHT22;28755;51.478;5.702;2022-09-09T16:51:39;18.60;99.90
43151;DHT22;28755;51.478;5.702;2022-09-09T16:54:07;18.50;99.90
43151;DHT22;28755;51.478;5.702;2022-09-09T16:56:35;18.40;99.90
43151;DHT22;28755;51.478;5.702;2022-09-09T16:59:09;18.20;99.90
43151;DHT22;28755;51.478;5.702;2022-09-09T17:01:37;18.10;99.90
43151;DHT22;28755;51.478;5.702;2022-09-09T17:04:05;17.80;99.90
43151;DHT22;28755;51.478;5.702;2022-09-09T17:06:32;17.10;99.90
43151;DHT22;28755;51.478;5.702;2022-09-09T17:09:11;16.70;99.90
43151;DHT22;28755;51.478;5.702;2022-09-09T17:11:38;16.50;99.90
43151;DHT22;28755;51.478;5.702;2022-09-09T17:14:04;16.30;99.90
43151;DHT22;28755;51.478;5.702;2022-09-09T17:16:32;16.30;99.90
43151;DHT22;28755;51.478;5.702;2022-09-09T17:18:59;16.30;99.90
43151;DHT22;28755;51.478;5.702;2022-09-09T17:21:27;16.30;99.90
43151;DHT22;28755;51.478;5.702;2022-09-09T17:23:54;16.20;99.90
43151;DHT22;28755;51.478;5.702;2022-09-09T17:26:23;16.20;99.90
43151;DHT22;28755;51.478;5.702;2022-09-09T17:28:49;16.20;99.90
43151;DHT22;28755;51.478;5.702;2022-09-09T17:31:16;16.20;99.90